Time;durP1;ratioP1;P1;durP2;ratioP2;P2;SDS_P1;SDS_P2;PMS_P1;PMS_P2;Temp;Humidity;BMP_temperature;BMP_pressure;BME280_temperature;BME280_humidity;BME280_pressure;Samples;Min_cycle;Max_cycle;Signal;HPM_P1;HPM_P2
2022/08/16 00:01:03;;;;;;;;;;;22.60;69.10;;;22.01;63.46;95543.75;4930549;28;19898;-85
2022/08/16 00:03:33;;;;;;;;;;;22.60;69.00;;;22.01;63.64;95546.53;4962700;28;20224;-85
2022/08/16 00:06:01;;;;;;;;;;;22.60;69.00;;;21.99;63.43;95546.13;4930748;28;19905;-85
2022/08/16 00:08:30;;;;;;;;;;;22.60;69.10;;;22.01;63.55;95554.09;4930071;28;20221;-86
2022/08/16 00:11:00;;;;;;;;;;;22.60;69.10;;;22.00;63.70;95550.53;4930792;28;20121;-86
2022/08/16 00:13:29;;;;;;;;;;;22.60;69.00;;;21.99;63.52;95551.69;4967271;28;19904;-85
2022/08/16 00:15:57;;;;;;;;;;;22.60;68.80;;;22.00;63.41;95558.06;4930571;28;19964;-85
2022/08/16 00:18:26;;;;;;;;;;;22.50;68.90;;;21.99;63.36;95554.47;4968688;28;19921;-85
2022/08/16 00:20:55;;;;;;;;;;;22.60;68.70;;;22.00;63.29;95550.53;5001895;28;19947;-85
2022/08/16 00:23:23;;;;;;;;;;;22.60;68.70;;;21.99;63.38;95553.66;4962390;28;19898;-86
2022/08/16 00:25:52;;;;;;;;;;;22.60;68.80;;;21.98;63.25;95550.06;4963933;28;19904;-84
2022/08/16 00:28:22;;;;;;;;;;;22.60;68.80;;;21.99;63.27;95548.91;4962196;28;19898;-84
2022/08/16 00:30:51;;;;;;;;;;;22.60;68.70;;;21.99;63.18;95548.09;4930650;28;20345;-85
2022/08/16 00:33:19;;;;;;;;;;;22.60;68.80;;;21.99;63.33;95556.44;4962437;28;20025;-85
2022/08/16 00:35:48;;;;;;;;;;;22.60;68.70;;;21.98;63.36;95554.81;4930452;28;20340;-84
2022/08/16 00:38:17;;;;;;;;;;;22.60;68.80;;;21.98;63.59;95552.03;4930011;28;19905;-85
2022/08/16 00:40:49;;;;;;;;;;;22.60;68.90;;;21.97;63.52;95561.56;4962546;28;20008;-85
2022/08/16 00:43:22;;;;;;;;;;;22.60;69.00;;;21.98;63.60;95557.59;4962590;28;20298;-86
2022/08/16 00:46:10;;;;;;;;;;;22.60;68.90;;;21.97;63.44;95556.00;4930482;28;19898;-85
2022/08/16 00:48:38;;;;;;;;;;;22.60;68.90;;;21.97;63.47;95556.00;4929877;28;19898;-84
2022/08/16 00:51:07;;;;;;;;;;;22.60;68.80;;;21.97;63.59;95554.03;4962512;28;20179;-85
2022/08/16 00:53:36;;;;;;;;;;;22.50;68.80;;;21.95;63.29;95553.56;4930374;28;20115;-85
2022/08/16 00:56:08;;;;;;;;;;;22.50;68.80;;;21.96;63.14;95555.19;4930458;28;19905;-85
2022/08/16 00:58:41;;;;;;;;;;;22.50;68.70;;;21.96;63.47;95562.72;4929726;28;20107;-85
2022/08/16 01:01:10;;;;;;;;;;;22.50;68.90;;;21.95;63.28;95561.94;4930319;28;19899;-85
2022/08/16 01:03:39;;;;;;;;;;;22.50;68.80;;;21.95;63.25;95564.72;4962478;28;20190;-86
2022/08/16 01:06:08;;;;;;;;;;;22.50;68.70;;;21.95;63.52;95567.50;4963700;28;19905;-86
2022/08/16 01:08:37;;;;;;;;;;;22.50;68.80;;;21.95;63.37;95561.94;4968582;28;20410;-88
2022/08/16 01:11:06;;;;;;;;;;;22.50;69.00;;;21.92;63.56;95557.06;4930585;28;19898;-86
2022/08/16 01:13:38;;;;;;;;;;;22.50;68.90;;;21.94;63.28;95559.53;4930427;28;19898;-86
2022/08/16 01:16:09;;;;;;;;;;;22.50;69.00;;;21.94;63.40;95560.31;4962478;28;19952;-86
2022/08/16 01:18:42;;;;;;;;;;;22.50;69.10;;;21.93;63.46;95558.69;4929685;28;19898;-86
2022/08/16 01:21:28;;;;;;;;;;;22.50;68.90;;;21.94;63.62;95565.88;4962258;28;19897;-86
2022/08/16 01:24:06;;;;;;;;;;;22.50;68.90;;;21.92;63.71;95562.66;4930468;28;19898;-86
2022/08/16 01:26:35;;;;;;;;;;;22.50;69.00;;;21.93;63.54;95569.84;5001576;28;20112;-86
2022/08/16 01:29:07;;;;;;;;;;;22.50;68.90;;;21.93;63.34;95575.41;4961984;28;19905;-85
2022/08/16 01:31:35;;;;;;;;;;;22.50;68.90;;;21.91;63.37;95575.78;5001715;28;20206;-86
2022/08/16 01:34:04;;;;;;;;;;;22.50;68.90;;;21.92;63.71;95580.19;4930154;28;19898;-85
2022/08/16 01:36:33;;;;;;;;;;;22.50;68.80;;;21.91;63.26;95570.22;4962577;28;19898;-86
2022/08/16 01:39:09;;;;;;;;;;;22.50;68.90;;;21.91;63.24;95573.00;4929750;28;19899;-86
2022/08/16 01:41:38;;;;;;;;;;;22.50;68.70;;;21.91;63.47;95569.38;4930159;28;19898;-86
2022/08/16 01:44:08;;;;;;;;;;;22.50;68.80;;;21.91;63.67;95561.03;4930386;28;20244;-86
2022/08/16 01:46:38;;;;;;;;;;;22.50;68.80;;;21.90;62.83;95562.19;4930347;28;19944;-86
2022/08/16 01:49:13;;;;;;;;;;;22.50;68.60;;;21.90;63.04;95570.56;4929743;28;20113;-86
2022/08/16 01:51:44;;;;;;;;;;;22.50;68.50;;;21.90;63.02;95559.41;4962471;28;19967;-86
2022/08/16 01:54:15;;;;;;;;;;;22.40;68.40;;;21.89;62.96;95560.56;4963842;28;19931;-86
2022/08/16 01:56:53;;;;;;;;;;;22.50;68.40;;;21.88;62.92;95559.78;4930164;28;19898;-86
2022/08/16 01:59:23;;;;;;;;;;;22.50;68.30;;;21.89;62.80;95563.38;4961890;28;20133;-86
2022/08/16 02:01:52;;;;;;;;;;;22.50;68.20;;;21.88;62.53;95564.56;4930218;28;19905;-86
2022/08/16 02:04:21;;;;;;;;;;;22.50;68.20;;;21.89;62.81;95560.56;4961715;28;19898;-85
2022/08/16 02:06:50;;;;;;;;;;;22.50;68.10;;;21.87;62.71;95557.38;4929136;28;19898;-85
2022/08/16 02:09:24;;;;;;;;;;;22.50;68.20;;;21.87;62.82;95560.16;4929617;28;19923;-86
2022/08/16 02:11:56;;;;;;;;;;;22.50;68.10;;;21.87;62.76;95560.94;4962172;28;20120;-86
2022/08/16 02:14:26;;;;;;;;;;;22.50;68.10;;;21.84;62.59;95558.88;4962327;28;19960;-86
2022/08/16 02:16:56;;;;;;;;;;;22.40;67.90;;;21.86;62.48;95558.53;4961686;28;19898;-84
2022/08/16 02:19:26;;;;;;;;;;;22.40;67.80;;;21.86;62.78;95567.69;4968246;28;19927;-86
2022/08/16 02:21:55;;;;;;;;;;;22.40;67.70;;;21.85;62.28;95559.69;4930163;28;19925;-85
2022/08/16 02:24:25;;;;;;;;;;;22.40;67.90;;;21.84;62.32;95561.66;4930094;28;19958;-85
2022/08/16 02:26:55;;;;;;;;;;;22.40;67.70;;;21.84;62.45;95564.44;4962237;28;19905;-85
2022/08/16 02:29:24;;;;;;;;;;;22.40;67.80;;;21.84;62.47;95566.44;4929622;28;19898;-85
2022/08/16 02:31:53;;;;;;;;;;;22.40;67.80;;;21.84;62.17;95572.81;4962106;28;19898;-85
2022/08/16 02:34:22;;;;;;;;;;;22.40;67.80;;;21.83;62.41;95576.75;4930039;28;20065;-85
2022/08/16 02:36:50;;;;;;;;;;;22.40;67.80;;;21.84;62.45;95577.59;4962100;28;20089;-85
2022/08/16 02:39:21;;;;;;;;;;;22.40;67.80;;;21.83;62.41;95581.53;4961467;28;19905;-85
2022/08/16 02:41:52;;;;;;;;;;;22.40;67.70;;;21.84;62.41;95594.31;4929885;28;20224;-86
2022/08/16 02:44:22;;;;;;;;;;;22.40;67.70;;;21.83;62.26;95592.69;4961964;28;19899;-85
2022/08/16 02:46:52;;;;;;;;;;;22.40;67.60;;;21.82;62.08;95589.06;4968632;28;19905;-84
2022/08/16 02:49:21;;;;;;;;;;;22.40;67.50;;;21.82;62.16;95593.84;4929284;28;19898;-85
2022/08/16 02:51:50;;;;;;;;;;;22.40;67.40;;;21.81;62.13;95600.59;4930093;28;20003;-85
2022/08/16 02:54:19;;;;;;;;;;;22.40;67.50;;;21.80;62.29;95596.19;4929793;28;20395;-85
2022/08/16 02:56:51;;;;;;;;;;;22.30;67.40;;;21.79;62.24;95598.16;4929905;28;20139;-85
2022/08/16 02:59:19;;;;;;;;;;;22.40;67.30;;;21.81;62.38;95603.38;4929205;28;19924;-87
2022/08/16 03:01:48;;;;;;;;;;;22.40;68.20;;;21.79;62.10;95608.50;4929782;28;20437;-85
2022/08/16 03:04:22;;;;;;;;;;;22.30;67.40;;;21.80;62.37;95612.91;4931011;28;19898;-85
2022/08/16 03:06:51;;;;;;;;;;;22.40;67.50;;;21.79;62.08;95605.69;4929946;28;20374;-85
2022/08/16 03:09:23;;;;;;;;;;;22.40;67.60;;;21.79;62.48;95614.06;4967851;28;19898;-86
2022/08/16 03:11:57;;;;;;;;;;;22.40;67.60;;;21.78;62.54;95616.06;4930119;28;19898;-86
2022/08/16 03:14:28;;;;;;;;;;;22.40;67.60;;;21.77;62.41;95606.06;4961877;28;20064;-85
2022/08/16 03:17:00;;;;;;;;;;;22.40;67.70;;;21.77;62.04;95603.28;4929922;28;20348;-84
2022/08/16 03:19:32;;;;;;;;;;;22.40;68.30;;;21.77;62.09;95611.63;4928961;28;19920;-85
2022/08/16 03:22:01;;;;;;;;;;;22.30;67.50;;;21.77;62.19;95615.22;4929715;28;19905;-84
2022/08/16 03:24:29;;;;;;;;;;;22.30;67.50;;;21.76;62.02;95612.81;4962589;28;20046;-85
2022/08/16 03:27:01;;;;;;;;;;;22.30;67.60;;;21.76;62.45;95613.59;4930686;28;20037;-85
2022/08/16 03:29:33;;;;;;;;;;;22.30;67.50;;;21.74;62.05;95607.59;4962225;28;19906;-86
2022/08/16 03:32:04;;;;;;;;;;;22.30;67.40;;;21.75;62.20;95611.19;4930778;28;19898;-85
2022/08/16 03:34:33;;;;;;;;;;;22.30;67.50;;;21.76;62.20;95616.38;4930550;28;20131;-86
2022/08/16 03:37:02;;;;;;;;;;;22.30;67.50;;;21.74;62.06;95604.81;4962718;28;19904;-86
2022/08/16 03:39:31;;;;;;;;;;;22.30;67.40;;;21.74;62.12;95602.03;4930018;28;19905;-86
2022/08/16 03:42:01;;;;;;;;;;;22.30;67.40;;;21.74;62.11;95604.81;4962805;28;19905;-85
2022/08/16 03:44:31;;;;;;;;;;;22.30;67.40;;;21.74;62.47;95606.78;4962415;28;19898;-86
2022/08/16 03:46:59;;;;;;;;;;;22.30;67.60;;;21.74;62.18;95606.78;4963064;28;19898;-85
2022/08/16 03:49:46;;;;;;;;;;;22.30;67.40;;;21.73;62.10;95600.41;4930028;28;19906;-86
2022/08/16 03:52:15;;;;;;;;;;;22.30;67.50;;;21.72;62.25;95607.16;4969451;28;19950;-87
2022/08/16 03:54:44;;;;;;;;;;;22.30;67.40;;;21.73;61.83;95603.19;4962787;28;19897;-86
2022/08/16 03:57:16;;;;;;;;;;;22.30;67.20;;;21.75;62.14;95608.41;4930780;28;20242;-86
2022/08/16 03:59:45;;;;;;;;;;;22.30;67.20;;;21.75;62.08;95606.41;4930106;28;19899;-86
2022/08/16 04:02:17;;;;;;;;;;;22.30;67.20;;;21.76;61.62;95598.88;4995508;28;19985;-86
2022/08/16 04:04:52;;;;;;;;;;;22.40;67.00;;;21.76;61.54;95596.88;4995189;28;19898;-85
2022/08/16 04:07:31;;;;;;;;;;;22.30;67.00;;;21.80;61.59;95605.34;4930411;28;20224;-86
2022/08/16 04:09:59;;;;;;;;;;;22.40;66.90;;;21.84;61.38;95605.44;4930694;28;20215;-86
2022/08/16 04:12:29;;;;;;;;;;;22.40;66.60;;;21.84;61.63;95605.44;4930779;28;19925;-85
2022/08/16 04:14:59;;;;;;;;;;;22.40;66.60;;;21.84;61.64;95606.25;4930971;28;20127;-85
2022/08/16 04:17:29;;;;;;;;;;;22.50;66.60;;;21.86;61.60;95598.34;5001389;28;19898;-85
2022/08/16 04:19:58;;;;;;;;;;;22.50;66.70;;;21.89;61.72;95607.94;4962711;28;20219;-86
2022/08/16 04:22:27;;;;;;;;;;;22.50;66.80;;;21.91;61.59;95597.25;4962458;28;19904;-85
2022/08/16 04:24:58;;;;;;;;;;;22.50;66.90;;;21.93;61.92;95597.72;4930473;28;20201;-86
2022/08/16 04:27:32;;;;;;;;;;;22.50;67.00;;;21.96;62.12;95597.00;5001483;28;19898;-86
2022/08/16 04:30:02;;;;;;;;;;;22.60;67.30;;;21.98;62.28;95600.25;4929885;28;20079;-85
2022/08/16 04:32:31;;;;;;;;;;;22.60;67.50;;;22.00;62.71;95595.13;5000294;28;19920;-86
2022/08/16 04:34:59;;;;;;;;;;;22.60;67.50;;;22.02;62.51;95589.97;4930653;28;20328;-86
2022/08/16 04:37:28;;;;;;;;;;;22.60;67.50;;;22.06;62.49;95595.66;4962211;28;20050;-84
2022/08/16 04:40:09;;;;;;;;;;;22.70;67.50;;;22.08;62.35;95596.06;4969130;28;20025;-85
2022/08/16 04:42:41;;;;;;;;;;;22.70;67.50;;;22.10;61.97;95601.31;4962640;28;20059;-85
2022/08/16 04:45:12;;;;;;;;;;;22.70;67.30;;;22.10;62.16;95592.94;4969007;28;19898;-86
2022/08/16 04:47:41;;;;;;;;;;;22.70;67.20;;;22.12;62.26;95591.41;4994737;28;19920;-85
2022/08/16 04:50:16;;;;;;;;;;;22.80;67.30;;;22.14;62.23;95597.44;4930340;28;20011;-85
2022/08/16 04:52:59;;;;;;;;;;;22.70;67.40;;;22.14;62.15;95596.66;4962428;28;19905;-86
2022/08/16 04:55:32;;;;;;;;;;;22.70;67.30;;;22.16;62.20;95597.06;4930300;28;19898;-85
2022/08/16 04:58:02;;;;;;;;;;;22.80;67.30;;;22.15;61.92;95595.44;4994827;28;20143;-85
2022/08/16 05:00:34;;;;;;;;;;;22.70;67.00;;;22.16;61.86;95599.84;4962418;28;20334;-87
2022/08/16 05:03:19;;;;;;;;;;;22.80;67.00;;;22.18;62.46;95586.38;4930407;28;20221;-86
2022/08/16 05:05:50;;;;;;;;;;;22.80;67.40;;;22.18;62.34;95583.56;4962480;28;19899;-86
2022/08/16 05:08:23;;;;;;;;;;;22.80;67.50;;;22.18;62.50;95587.19;4961997;28;19898;-86
2022/08/16 05:10:59;;;;;;;;;;;22.80;67.50;;;22.20;62.37;95590.41;4962428;28;20049;-86
2022/08/16 05:13:29;;;;;;;;;;;22.80;67.40;;;22.21;61.91;95585.66;4930213;28;19898;-86
2022/08/16 05:16:01;;;;;;;;;;;22.90;67.50;;;22.25;62.60;95589.34;5001724;28;19897;-85
2022/08/16 05:18:30;;;;;;;;;;;22.90;67.50;;;22.27;62.07;95594.53;4962190;28;19899;-85
2022/08/16 05:21:15;;;;;;;;;;;22.90;67.60;;;22.29;62.32;95581.84;4969068;28;19898;-86
2022/08/16 05:23:49;;;;;;;;;;;22.90;67.50;;;22.34;62.16;95595.53;4962331;28;19898;-86
2022/08/16 05:26:17;;;;;;;;;;;22.90;67.30;;;22.42;62.14;95602.13;4962467;28;19899;-86
2022/08/16 05:28:47;;;;;;;;;;;23.00;67.10;;;22.50;61.89;95603.88;4962134;28;19898;-86
2022/08/16 05:31:16;;;;;;;;;;;23.10;67.20;;;22.58;61.47;95599.28;4968934;28;20190;-86
2022/08/16 05:33:45;;;;;;;;;;;23.20;66.90;;;22.64;61.50;95597.84;4962264;28;19905;-86
2022/08/16 05:36:15;;;;;;;;;;;23.20;66.60;;;22.72;61.42;95609.94;4968721;28;19951;-85
2022/08/16 05:38:49;;;;;;;;;;;23.30;66.60;;;22.76;61.22;95615.63;4929812;28;19955;-85
2022/08/16 05:41:17;;;;;;;;;;;23.30;66.40;;;22.79;60.79;95612.91;4968986;28;20073;-85
2022/08/16 05:43:55;;;;;;;;;;;23.40;66.20;;;22.81;61.09;95615.31;4930267;28;20026;-85
2022/08/16 05:46:30;;;;;;;;;;;23.40;66.00;;;22.83;60.67;95615.78;4930044;28;19905;-86
2022/08/16 05:48:59;;;;;;;;;;;23.40;65.90;;;22.85;60.67;95610.63;4929889;28;20406;-86
2022/08/16 05:51:28;;;;;;;;;;;23.40;65.80;;;22.86;60.56;95620.63;4962184;28;20221;-86
2022/08/16 05:54:09;;;;;;;;;;;23.50;65.70;;;22.89;60.84;95627.44;4962474;28;20077;-86
2022/08/16 05:56:38;;;;;;;;;;;23.50;65.60;;;22.89;60.47;95627.44;4968779;28;20138;-86
2022/08/16 05:59:08;;;;;;;;;;;23.50;65.60;;;22.92;60.68;95647.06;4929810;28;19946;-85
2022/08/16 06:01:40;;;;;;;;;;;23.50;65.50;;;22.92;60.66;95632.31;4930309;28;19900;-87
2022/08/16 06:04:17;;;;;;;;;;;23.50;65.40;;;22.88;60.29;95637.81;4930117;28;20078;-87
2022/08/16 06:06:50;;;;;;;;;;;23.50;65.40;;;22.87;60.75;95646.53;4929962;28;19992;-85
2022/08/16 06:09:21;;;;;;;;;;;23.50;65.40;;;22.85;60.47;95643.34;4929574;28;20221;-85
2022/08/16 06:11:50;;;;;;;;;;;23.50;65.60;;;22.86;60.57;95645.75;4962184;28;20100;-85
2022/08/16 06:14:20;;;;;;;;;;;23.50;65.60;;;22.87;60.21;95639.00;4930199;28;19921;-87
2022/08/16 06:16:48;;;;;;;;;;;23.50;65.70;;;22.90;60.51;95638.28;4962158;28;19912;-86
2022/08/16 06:19:20;;;;;;;;;;;23.50;65.60;;;22.95;60.51;95639.97;4929600;28;19904;-85
2022/08/16 06:22:00;;;;;;;;;;;23.50;65.50;;;22.98;60.40;95640.03;4962312;28;20110;-86
2022/08/16 06:24:29;;;;;;;;;;;23.60;65.50;;;23.00;60.67;95636.88;4963211;28;19905;-86
2022/08/16 06:26:57;;;;;;;;;;;23.60;65.40;;;23.04;60.38;95637.75;4994967;28;19964;-86
2022/08/16 06:29:31;;;;;;;;;;;23.60;65.30;;;23.08;60.20;95635.03;4961939;28;20082;-86
2022/08/16 06:32:02;;;;;;;;;;;23.60;65.30;;;23.08;60.13;95641.44;4968383;28;19902;-86
2022/08/16 06:34:31;;;;;;;;;;;23.70;65.30;;;23.11;60.24;95642.69;4929958;28;19898;-86
2022/08/16 06:37:00;;;;;;;;;;;23.70;65.20;;;23.12;60.10;95641.50;4930022;28;19898;-85
2022/08/16 06:39:29;;;;;;;;;;;23.70;65.10;;;23.14;59.90;95641.97;4961413;28;19898;-85
2022/08/16 06:42:19;;;;;;;;;;;23.70;65.00;;;23.12;59.88;95642.31;4961423;28;19898;-85
2022/08/16 06:44:49;;;;;;;;;;;23.70;64.90;;;23.08;60.27;95643.41;4963221;28;20082;-85
2022/08/16 06:47:43;;;;;;;;;;;23.70;64.90;;;23.04;60.57;95643.34;4950882;28;20424;-85
2022/08/16 06:50:12;;;;;;;;;;;23.70;65.10;;;23.06;60.10;95640.19;4930076;28;19905;-85
2022/08/16 06:52:46;;;;;;;;;;;23.70;65.20;;;23.09;60.20;95645.03;4929983;28;19898;-85
2022/08/16 06:55:17;;;;;;;;;;;23.70;65.20;;;23.12;59.98;95649.91;4962203;28;20190;-86
2022/08/16 06:57:54;;;;;;;;;;;23.70;65.00;;;23.14;60.09;95634.38;4961599;28;20094;-85
2022/08/16 07:00:24;;;;;;;;;;;23.70;64.90;;;23.16;60.19;95641.59;4930647;28;19898;-85
2022/08/16 07:03:05;;;;;;;;;;;23.70;64.90;;;23.16;59.75;95638.78;4931107;28;19898;-86
2022/08/16 07:05:36;;;;;;;;;;;23.70;64.90;;;23.18;60.18;95650.41;4931420;28;19898;-85
2022/08/16 07:08:17;;;;;;;;;;;23.70;64.80;;;23.19;59.74;95632.47;4929982;28;20142;-85
2022/08/16 07:11:48;;;;;;;;;;;23.80;64.80;;;23.20;59.92;95634.94;4931075;28;20282;-85
2022/08/16 07:14:22;;;;;;;;;;;23.80;64.80;;;23.23;59.65;95634.19;4901171;28;19904;-85
2022/08/16 07:16:56;;;;;;;;;;;23.80;64.70;;;23.22;60.09;95638.16;4930737;28;19898;-86
2022/08/16 07:19:25;;;;;;;;;;;23.80;64.60;;;23.23;59.88;95645.38;4962178;28;19905;-86
2022/08/16 07:21:53;;;;;;;;;;;23.80;64.70;;;23.21;59.78;95636.53;4962934;28;20460;-87
2022/08/16 07:24:22;;;;;;;;;;;23.80;64.70;;;23.18;59.93;95642.81;4995448;28;19898;-85
2022/08/16 07:26:51;;;;;;;;;;;23.80;64.70;;;23.14;59.99;95641.97;4969120;28;20098;-86
2022/08/16 07:38:06;;;;;;;;;;;23.70;65.20;;;22.92;61.00;95658.22;5042684;28;19893;-85
2022/08/16 07:42:25;;;;;;;;;;;23.60;65.40;;;22.86;60.81;95662.50;4976705;28;20132;-85
2022/08/16 07:44:54;;;;;;;;;;;23.50;65.70;;;22.80;61.16;95649.97;4898509;28;19898;-86
2022/08/16 07:47:23;;;;;;;;;;;23.40;65.90;;;22.77;60.97;95657.09;4898187;28;20401;-86
2022/08/16 07:49:52;;;;;;;;;;;23.40;66.00;;;22.74;61.47;95657.03;4898207;28;20374;-87
2022/08/16 07:52:51;;;;;;;;;;;23.40;66.20;;;22.71;61.46;95658.56;4929175;28;19902;-86
2022/08/16 07:55:22;;;;;;;;;;;23.30;66.20;;;22.68;61.17;95657.31;4898268;28;20107;-85
2022/08/16 07:58:33;;;;;;;;;;;23.30;66.40;;;22.66;61.40;95664.44;4929971;28;19898;-86
2022/08/16 08:01:04;;;;;;;;;;;23.30;66.50;;;22.63;61.21;95674.34;4897299;28;19903;-85
2022/08/16 08:04:38;;;;;;;;;;;23.30;66.70;;;22.60;61.88;95663.91;4898280;28;19905;-85
2022/08/16 08:07:07;;;;;;;;;;;23.20;66.70;;;22.56;62.13;95665.78;4898301;28;19985;-85
2022/08/16 08:09:54;;;;;;;;;;;23.20;66.90;;;22.54;61.92;95665.31;4898044;28;19915;-85
2022/08/16 08:12:56;;;;;;;;;;;23.20;66.90;;;22.52;61.61;95667.69;4934155;28;19982;-85
2022/08/16 08:15:26;;;;;;;;;;;23.10;67.00;;;22.50;61.78;95670.03;5041803;28;20121;-85
2022/08/16 08:17:55;;;;;;;;;;;23.10;67.10;;;22.49;62.19;95662.84;4969246;28;20098;-86
2022/08/16 08:20:32;;;;;;;;;;;23.10;67.20;;;22.47;62.01;95660.38;4968775;28;19988;-85
2022/08/16 08:23:02;;;;;;;;;;;23.10;67.30;;;22.46;62.13;95669.94;5002103;28;20368;-86
2022/08/16 08:30:36;;;;;;;;;;;23.00;67.40;;;22.42;62.18;95673.81;5001224;28;20005;-85
2022/08/16 08:33:38;;;;;;;;;;;23.00;67.50;;;22.42;62.33;95671.00;4969068;28;20112;-86
2022/08/16 08:40:57;;;;;;;;;;;23.00;67.50;;;22.40;62.57;95676.94;4939854;28;20105;-86
2022/08/16 08:43:26;;;;;;;;;;;23.00;67.60;;;22.40;62.50;95673.34;5008638;28;19898;-86
2022/08/16 08:46:01;;;;;;;;;;;23.00;67.60;;;22.41;62.69;95683.31;4969229;28;19999;-85
2022/08/16 08:48:31;;;;;;;;;;;23.00;67.60;;;22.40;62.46;95687.28;4969185;28;19904;-85
2022/08/16 08:51:00;;;;;;;;;;;23.00;67.60;;;22.40;62.38;95681.72;4968514;28;19897;-85
2022/08/16 08:53:29;;;;;;;;;;;23.00;67.70;;;22.38;62.52;95691.25;4969154;28;19898;-85
2022/08/16 08:56:32;;;;;;;;;;;23.00;67.70;;;22.38;62.68;95680.09;5001832;28;19904;-84
2022/08/16 08:59:39;;;;;;;;;;;23.00;67.80;;;22.37;62.76;95684.03;5001791;28;19902;-85
2022/08/16 09:02:10;;;;;;;;;;;23.00;67.70;;;22.38;62.73;95679.25;5000956;28;19897;-86
2022/08/16 09:04:46;;;;;;;;;;;23.00;67.70;;;22.37;62.70;95688.81;4974987;28;20143;-85
2022/08/16 09:07:16;;;;;;;;;;;23.00;67.80;;;22.35;62.71;95679.97;4936308;28;19897;-85
2022/08/16 09:09:45;;;;;;;;;;;23.00;67.80;;;22.36;62.52;95684.38;4936216;28;19904;-86
2022/08/16 09:12:17;;;;;;;;;;;23.00;67.90;;;22.34;62.61;95686.72;4935505;28;19899;-86
2022/08/16 09:15:12;;;;;;;;;;;23.00;67.90;;;22.35;62.73;95685.56;4964435;28;20028;-85
2022/08/16 09:17:43;;;;;;;;;;;23.00;67.90;;;22.35;62.64;95691.13;4935914;28;19924;-85
2022/08/16 09:20:13;;;;;;;;;;;23.00;68.00;;;22.34;62.58;95693.13;5002094;28;20100;-86
2022/08/16 09:22:43;;;;;;;;;;;23.00;68.00;;;22.34;62.61;95695.91;4968327;28;19905;-86
2022/08/16 09:25:13;;;;;;;;;;;23.00;68.00;;;22.34;62.45;95695.91;5001024;28;20115;-86
2022/08/16 09:27:42;;;;;;;;;;;23.00;68.00;;;22.35;62.85;95699.50;4935724;28;19958;-86
2022/08/16 09:30:12;;;;;;;;;;;22.90;68.00;;;22.34;62.78;95695.91;5007290;28;19942;-86
2022/08/16 09:32:40;;;;;;;;;;;22.90;68.10;;;22.35;62.89;95691.97;4969013;28;19902;-86
2022/08/16 09:35:10;;;;;;;;;;;22.90;68.10;;;22.36;62.57;95687.19;5001817;28;19898;-84
2022/08/16 09:37:39;;;;;;;;;;;23.00;68.00;;;22.37;62.93;95695.19;4969166;28;20139;-84
2022/08/16 09:40:09;;;;;;;;;;;23.00;68.00;;;22.37;62.55;95683.22;5000734;28;19898;-86
2022/08/16 09:42:38;;;;;;;;;;;23.00;68.00;;;22.40;62.50;95687.28;4969069;28;20053;-86
2022/08/16 09:45:08;;;;;;;;;;;23.00;68.00;;;22.44;62.39;95677.03;4969145;28;20215;-85
2022/08/16 09:47:39;;;;;;;;;;;23.00;67.90;;;22.45;62.31;95682.28;5034563;28;20134;-86
2022/08/16 09:50:11;;;;;;;;;;;23.10;67.80;;;22.50;61.97;95682.00;4968525;28;19897;-87
2022/08/16 09:52:39;;;;;;;;;;;23.10;67.60;;;22.53;62.41;95678.47;5001520;28;19938;-85
2022/08/16 09:55:10;;;;;;;;;;;23.10;67.50;;;22.57;62.25;95674.97;4969059;28;20557;-86
2022/08/16 09:57:41;;;;;;;;;;;23.20;67.50;;;22.59;62.34;95670.66;5001639;28;20132;-86
2022/08/16 10:00:11;;;;;;;;;;;23.20;67.40;;;22.62;61.86;95672.72;4968198;28;20108;-86
2022/08/16 10:02:43;;;;;;;;;;;23.20;67.10;;;22.64;61.71;95670.38;5001644;28;19897;-85
2022/08/16 10:05:13;;;;;;;;;;;23.20;67.10;;;22.66;61.89;95670.00;5001498;28;20165;-86
2022/08/16 10:07:43;;;;;;;;;;;23.30;67.20;;;22.67;62.10;95664.06;5001502;28;20089;-86
2022/08/16 10:10:12;;;;;;;;;;;23.30;67.00;;;22.68;61.91;95676.84;4968324;28;19905;-85
2022/08/16 10:15:42;;;;;;;;;;;23.30;66.90;;;22.68;61.95;95674.03;4860097;29;19962;-84
2022/08/16 10:18:11;;;;;;;;;;;23.30;67.00;;;22.70;61.76;95675.66;4891392;29;19905;-86
2022/08/16 10:20:43;;;;;;;;;;;23.30;67.00;;;22.71;61.77;95691.22;4970466;28;20189;-86
2022/08/16 10:23:14;;;;;;;;;;;23.30;66.90;;;22.72;61.52;95682.50;5001386;28;19920;-86
2022/08/16 10:25:44;;;;;;;;;;;23.30;66.80;;;22.71;61.67;95680.06;4968746;28;20068;-86
2022/08/16 10:28:13;;;;;;;;;;;23.30;66.90;;;22.74;61.87;95673.78;4968834;28;19898;-86
2022/08/16 10:30:42;;;;;;;;;;;23.30;66.80;;;22.75;61.66;95675.41;4968046;28;20046;-86
2022/08/16 10:33:12;;;;;;;;;;;23.30;66.80;;;22.75;61.70;95680.97;5002077;28;19897;-86
2022/08/16 10:35:42;;;;;;;;;;;23.40;66.80;;;22.75;61.85;95675.41;4969674;28;19898;-86
2022/08/16 10:38:11;;;;;;;;;;;23.40;66.80;;;22.76;61.57;95679.81;5003372;28;19942;-86
2022/08/16 10:40:40;;;;;;;;;;;23.40;66.80;;;22.73;61.57;95672.16;4968900;28;19936;-86
2022/08/16 10:43:09;;;;;;;;;;;23.30;66.80;;;22.73;61.82;95674.94;5002285;28;19905;-86
2022/08/16 10:45:39;;;;;;;;;;;23.30;66.80;;;22.72;61.59;95679.69;5009047;28;19945;-86
2022/08/16 10:48:09;;;;;;;;;;;23.30;66.90;;;22.72;61.57;95681.69;5002075;28;19986;-87
2022/08/16 10:50:38;;;;;;;;;;;23.30;67.00;;;22.74;61.85;95673.78;5001594;28;19921;-87
2022/08/16 10:53:07;;;;;;;;;;;23.30;66.90;;;22.72;62.14;95670.53;4969606;28;19897;-85
2022/08/16 10:55:37;;;;;;;;;;;23.30;66.90;;;22.72;61.63;95662.97;4969683;28;20238;-87
2022/08/16 10:58:07;;;;;;;;;;;23.30;66.90;;;22.71;61.77;95666.94;4969300;28;20050;-86
2022/08/16 11:00:37;;;;;;;;;;;23.30;66.80;;;22.71;61.71;95663.34;5001702;28;19904;-85
2022/08/16 11:03:06;;;;;;;;;;;23.30;67.00;;;22.68;61.77;95651.72;5041961;28;19904;-86
2022/08/16 11:05:36;;;;;;;;;;;23.30;67.00;;;22.68;61.67;95645.34;4969656;28;19897;-85
2022/08/16 11:08:10;;;;;;;;;;;23.30;67.00;;;22.70;61.92;95639.38;4969539;28;19904;-86
2022/08/16 11:10:41;;;;;;;;;;;23.30;67.80;;;22.68;61.64;95628.59;5001643;28;20089;-86
2022/08/16 11:13:10;;;;;;;;;;;23.30;67.00;;;22.67;61.64;95624.19;5008747;28;20006;-86
2022/08/16 11:15:42;;;;;;;;;;;23.30;67.00;;;22.70;61.60;95634.63;5003437;28;19901;-86
2022/08/16 11:18:10;;;;;;;;;;;23.30;67.00;;;22.68;61.63;95629.41;5002029;28;20117;-86
2022/08/16 11:20:39;;;;;;;;;;;23.30;67.00;;;22.69;61.62;95627.44;4968869;28;19908;-86
2022/08/16 11:23:09;;;;;;;;;;;23.30;66.90;;;22.70;61.98;95625.44;5002081;28;20354;-86
2022/08/16 11:25:38;;;;;;;;;;;23.30;67.00;;;22.70;61.99;95628.22;5002152;28;20015;-86
2022/08/16 11:28:07;;;;;;;;;;;23.30;67.00;;;22.69;61.88;95638.59;5002091;28;20109;-86
2022/08/16 11:30:36;;;;;;;;;;;23.30;66.90;;;22.71;61.61;95635.44;5039558;28;20220;-85
2022/08/16 11:33:04;;;;;;;;;;;23.30;66.90;;;22.72;61.80;95645.41;5001997;28;19908;-85
2022/08/16 11:35:33;;;;;;;;;;;23.30;66.90;;;22.71;61.96;95646.59;5002181;28;20272;-85
2022/08/16 11:38:03;;;;;;;;;;;23.30;66.80;;;22.71;61.58;95657.75;4969306;28;20136;-85
2022/08/16 11:40:37;;;;;;;;;;;23.30;66.80;;;22.71;61.60;95649.38;5001467;28;20115;-85
2022/08/16 11:43:06;;;;;;;;;;;23.30;66.80;;;22.71;61.88;95653.00;5008685;28;20104;-86
2022/08/16 11:45:35;;;;;;;;;;;23.30;66.80;;;22.71;61.79;95658.56;5034973;28;20070;-86
2022/08/16 11:48:05;;;;;;;;;;;23.30;66.80;;;22.74;61.66;95659.81;5001770;28;20001;-85
2022/08/16 11:50:33;;;;;;;;;;;23.30;66.80;;;22.73;61.40;95663.78;5002687;28;20286;-86
2022/08/16 11:53:03;;;;;;;;;;;23.30;66.80;;;22.73;61.50;95661.00;5002007;28;19971;-85
2022/08/16 11:55:34;;;;;;;;;;;23.30;66.80;;;22.71;61.61;95660.53;4969084;28;20197;-86
2022/08/16 11:58:03;;;;;;;;;;;23.30;66.80;;;22.70;61.51;95658.91;5004550;28;19904;-85
2022/08/16 12:00:32;;;;;;;;;;;23.30;66.80;;;22.70;61.60;95658.91;5004344;28;20409;-86
2022/08/16 12:03:00;;;;;;;;;;;23.30;66.80;;;22.70;61.50;95656.97;4972095;28;20295;-85